Wolcottville, IN

9:39 AM EDT on June 30, 2015 (GMT -0400)
Weather on the hill | | Change Station
CLOSE
Current Station
Personal Weather Station
Location: Kendallville, IN
Elevation: 1004 ft
Nearby Weather Stations

Elev 1004 ft 41.45 °N, 85.23 °W | Updated 4 minutes ago

Overcast
Overcast
63.4 °F
Feels Like 63.4 °F
N
1.0
Wind Variable Wind from SSW
Gusts 3.0 mph

Today
High -- | Low -- °F
--% Chance of Precip.
Yesterday
High -- | Low -- °F
Precip. -- in
6:10 AM 9:19 PM
Waxing Gibbous, 97% visible
Pressure 29.83 in
Visibility 10.0 miles
Clouds Overcast 700 ft
Dew Point 63 °F
Humidity 98%
Rainfall in
Snow Depth Not available.
UV 2 out of 12
Pollen 1.70 out of 12
Air Quality Not available.
Flu Activity No Activity
METAR KANQ 301355Z AUTO 18005KT 10SM OVC007 17/12 A2983 RMK

More Conditions Fewer Conditions

Pressure 29.83 in
Visibility 10.0 miles
Clouds Overcast 700 ft
Dew Point 63 °F
Humidity 98%
Rainfall in
Snow Depth Not available.
UV 2 out of 12
Pollen 1.70 out of 12
Air Quality Not available.
Flu Activity No Activity
METAR KANQ 301355Z AUTO 18005KT 10SM OVC007 17/12 A2983 RMK

More Conditions Fewer Conditions

10-Day Weather Forecast

×

Almanac

Astronomy

Jun. 30, 2015 Rise Set
Actual Time
Civil Twilight
Nautical Twilight
Astronomical Twilight
Moon
Length of Visible Light
Length of Day
Tomorrow will be .
, % of the Moon is Illuminated

Today's Extremes

State Highs State Lows

Community

WunderPhotos

Upload Photos

1,833,994 photos uploaded!

WunderBlogs® & News

Nearby

Air Quality

  Air Quality AQ Index Pollutant
Not available.

Snow Depth

Station Depth Elevation

Earthquake Activity

City Distance Mag. Time & Date
Minimum magnitude displayed is 2.5.

Coastal Water Temperatures

Place Temperature

Stations

Nearby Weather Stations

Station Location Temp. Windchill Dew Point Humidity Wind Precip. Elev Updated Type